Time;durP1;ratioP1;P1;durP2;ratioP2;P2;SDS_P1;SDS_P2;PMS_P1;PMS_P2;Temp;Humidity;BMP_temperature;BMP_pressure;BME280_temperature;BME280_humidity;BME280_pressure;Samples;Min_cycle;Max_cycle;Signal;HPM_P1;HPM_P2
2021/05/27 00:00:33;;;;;;;1.23;1.10;;;14.50;65.30;;;14.22;49.23;94809.47;4969892;28;20212;-82
2021/05/27 00:03:00;;;;;;;1.85;1.35;;;14.60;65.00;;;14.20;49.74;94816.81;4980320;28;20216;-82
2021/05/27 00:05:29;;;;;;;2.13;1.50;;;14.50;65.30;;;14.25;49.42;94824.06;4911230;28;20237;-81
2021/05/27 00:09:21;;;;;;;1.85;1.33;;;14.50;65.20;;;14.21;49.25;94820.25;5132606;27;20664;-82
2021/05/27 00:11:47;;;;;;;1.40;1.30;;;14.50;65.00;;;14.23;49.60;94828.75;5074912;28;20211;-82
2021/05/27 00:14:14;;;;;;;2.15;1.33;;;14.50;65.20;;;14.22;49.20;94825.31;5112366;27;20273;-81
2021/05/27 00:16:41;;;;;;;2.70;1.50;;;14.50;65.10;;;14.24;49.83;94827.72;5068710;28;20210;-82
2021/05/27 00:19:07;;;;;;;1.83;1.40;;;14.50;65.30;;;14.28;49.58;94841.28;5033464;28;20687;-82
2021/05/27 00:21:34;;;;;;;1.40;1.30;;;14.50;65.30;;;14.30;49.30;94849.81;4991255;28;20688;-82
2021/05/27 00:24:01;;;;;;;2.30;1.30;;;14.50;65.20;;;14.29;49.10;94832.34;4917261;29;20240;-82
2021/05/27 00:26:27;;;;;;;1.30;1.20;;;14.50;65.20;;;14.34;49.19;94835.16;4764856;29;20355;-83
2021/05/27 00:30:18;;;;;;;1.95;1.42;;;14.50;65.20;;;14.34;49.02;94840.44;5150606;27;21136;-82
2021/05/27 00:32:46;;;;;;;1.85;1.20;;;14.50;65.10;;;14.35;48.97;94826.22;5125370;28;20208;-81
2021/05/27 00:35:13;;;;;;;1.77;1.40;;;14.60;65.10;;;14.36;48.78;94835.75;5089707;28;20198;-82
2021/05/27 00:37:41;;;;;;;1.42;1.33;;;14.60;65.10;;;14.34;48.66;94825.41;5108175;28;20274;-82
2021/05/27 00:40:12;;;;;;;2.25;1.05;;;14.60;65.00;;;14.35;49.01;94836.78;5077782;28;20285;-81
2021/05/27 00:42:39;;;;;;;1.83;1.40;;;14.60;65.10;;;14.37;48.73;94835.53;5012901;28;20320;-82
2021/05/27 00:45:12;;;;;;;1.17;1.10;;;14.60;65.00;;;14.35;48.79;94836.78;4948037;28;20661;-81
2021/05/27 00:47:39;;;;;;;2.83;1.20;;;14.50;65.20;;;14.35;48.93;94832.28;4732038;29;20715;-82
2021/05/27 00:50:21;;;;;;;1.13;1.08;;;14.50;65.10;;;14.29;48.79;94830.50;5150709;27;20379;-81
2021/05/27 00:52:51;;;;;;;2.70;1.33;;;14.60;65.10;;;14.33;48.89;94839.63;5072736;28;20221;-82
2021/05/27 00:55:23;;;;;;;1.48;1.25;;;14.60;65.20;;;14.30;49.31;94839.25;5074662;28;20208;-82
2021/05/27 00:57:53;;;;;;;2.00;1.42;;;14.60;65.60;;;14.28;50.09;94841.28;5044301;28;20328;-83
2021/05/27 01:00:24;;;;;;;1.88;1.60;;;14.60;64.60;;;14.28;49.71;94841.28;4926200;28;20234;-81
2021/05/27 01:02:52;;;;;;;1.80;1.20;;;14.60;66.50;;;14.22;49.84;94840.31;4909048;29;20235;-82
2021/05/27 01:05:19;;;;;;;2.38;1.45;;;14.60;65.50;;;14.21;50.08;94849.28;4851627;29;20210;-81
2021/05/27 01:10:29;;;;;;;2.08;1.30;;;14.50;65.70;;;14.05;50.80;94848.78;5150373;27;20635;-83
2021/05/27 01:12:56;;;;;;;3.28;1.30;;;14.50;66.00;;;13.90;51.23;94843.84;5112020;27;20650;-83
2021/05/27 01:15:30;;;;;;;1.83;1.60;;;14.40;66.30;;;13.83;51.61;94844.88;5074146;28;20252;-82
2021/05/27 01:18:12;;;;;;;1.33;1.20;;;14.40;66.60;;;13.74;52.06;94855.72;5066379;28;20245;-82
2021/05/27 01:20:47;;;;;;;1.85;1.30;;;14.30;66.70;;;13.63;51.49;94847.66;4976047;28;20218;-82
2021/05/27 01:23:14;;;;;;;1.30;1.20;;;14.20;66.90;;;13.59;51.33;94860.44;4960211;28;20245;-82
2021/05/27 01:25:48;;;;;;;1.92;1.30;;;14.10;66.60;;;13.51;52.01;94861.53;4891719;28;20217;-82
2021/05/27 01:28:43;;;;;;;1.20;1.10;;;14.10;67.10;;;13.45;52.25;94854.44;5139289;27;20656;-83
2021/05/27 01:31:10;;;;;;;2.17;1.30;;;14.00;66.90;;;13.39;52.03;94852.66;5098582;28;20211;-82
2021/05/27 01:33:38;;;;;;;1.30;1.20;;;13.90;66.90;;;13.34;52.24;94862.97;5093203;28;20640;-82
2021/05/27 01:36:09;;;;;;;2.00;1.50;;;13.90;67.00;;;13.26;52.24;94866.66;5079288;28;20358;-83
2021/05/27 01:38:39;;;;;;;1.33;1.23;;;13.80;67.20;;;13.27;51.77;94878.81;5048631;28;20261;-82
2021/05/27 01:41:09;;;;;;;1.20;1.10;;;13.70;67.00;;;13.26;51.94;94880.63;4999382;28;20209;-82
2021/05/27 01:43:36;;;;;;;1.52;1.25;;;13.70;67.10;;;13.24;51.87;94876.59;4965322;28;20271;-82
2021/05/27 01:46:03;;;;;;;1.17;1.10;;;13.60;67.20;;;13.27;52.46;94866.44;4853587;29;20214;-82
2021/05/27 01:48:50;;;;;;;1.80;1.25;;;13.60;67.30;;;13.28;52.01;94878.63;5137805;27;20541;-82
2021/05/27 01:51:17;;;;;;;1.73;1.20;;;13.60;67.20;;;13.24;52.30;94868.69;5108396;28;20207;-83
2021/05/27 01:53:44;;;;;;;1.42;1.17;;;13.70;67.60;;;13.22;52.43;94866.28;5109914;28;20305;-82
2021/05/27 01:56:11;;;;;;;2.33;1.55;;;13.60;67.60;;;13.26;52.34;94867.47;5109921;27;20707;-82
2021/05/27 01:58:39;;;;;;;2.63;1.38;;;13.60;67.60;;;13.25;52.32;94860.56;5095529;28;20301;-83
2021/05/27 02:01:06;;;;;;;2.00;1.40;;;13.70;67.60;;;13.22;52.70;94870.72;5002841;28;20573;-82
2021/05/27 02:03:40;;;;;;;1.35;1.27;;;13.60;67.70;;;13.25;52.36;94872.94;4845816;29;20694;-84
2021/05/27 02:06:16;;;;;;;1.90;1.50;;;13.60;67.70;;;13.24;52.40;94869.53;4808701;29;20742;-83
2021/05/27 02:09:10;;;;;;;1.40;1.20;;;13.50;67.60;;;13.23;52.44;94859.19;5137226;27;20395;-83
2021/05/27 02:12:10;;;;;;;2.35;1.30;;;13.50;67.60;;;13.21;52.62;94866.50;5046284;28;20219;-82
2021/05/27 02:14:38;;;;;;;2.05;1.20;;;13.60;67.70;;;13.21;52.01;94858.59;5028890;28;20249;-84
2021/05/27 02:17:06;;;;;;;1.42;1.27;;;13.60;67.70;;;13.19;52.23;94842.97;5030377;28;20207;-84
2021/05/27 02:19:34;;;;;;;1.40;1.30;;;13.50;67.70;;;13.24;52.52;94847.63;5042022;28;20234;-84
2021/05/27 02:22:00;;;;;;;1.98;1.13;;;13.60;67.80;;;13.21;52.28;94851.50;4979080;28;20233;-85
2021/05/27 02:24:51;;;;;;;1.30;1.20;;;13.50;67.70;;;13.23;52.08;94851.28;4815664;29;20232;-83
2021/05/27 02:29:21;;;;;;;1.67;1.58;;;13.60;67.70;;;13.19;52.03;94837.72;5132969;27;20614;-82
2021/05/27 02:31:47;;;;;;;1.42;1.20;;;13.50;67.60;;;13.18;52.01;94830.81;5089704;28;20201;-82
2021/05/27 02:34:18;;;;;;;1.30;1.20;;;13.60;67.80;;;13.19;52.41;94834.28;5098363;28;20232;-83
2021/05/27 02:36:47;;;;;;;1.23;1.20;;;13.50;67.70;;;13.18;52.31;94843.19;5048555;28;20297;-82
2021/05/27 02:39:14;;;;;;;1.80;1.30;;;13.50;67.70;;;13.13;52.46;94831.47;5015480;28;20224;-81
2021/05/27 02:41:45;;;;;;;1.30;1.20;;;13.50;67.80;;;13.12;54.13;94850.09;4938914;28;20231;-82
2021/05/27 02:44:17;;;;;;;3.30;1.33;;;13.50;68.00;;;13.13;53.20;94849.09;4814978;29;20266;-83
2021/05/27 02:46:49;;;;;;;2.78;1.30;;;13.50;68.20;;;13.08;53.24;94843.66;4694247;29;20230;-83
2021/05/27 02:49:22;;;;;;;1.60;1.50;;;13.50;68.20;;;13.04;52.92;94845.88;5132794;27;20404;-83
2021/05/27 02:51:53;;;;;;;1.55;1.20;;;13.50;68.10;;;13.08;52.97;94846.28;5054801;28;20201;-82
2021/05/27 02:54:19;;;;;;;1.20;1.10;;;13.40;68.30;;;13.07;53.35;94847.28;5102702;28;20229;-81
2021/05/27 02:56:47;;;;;;;1.50;1.30;;;13.40;68.20;;;13.03;52.86;94835.56;5067084;28;20202;-83
2021/05/27 02:59:19;;;;;;;1.55;1.17;;;13.40;68.10;;;13.05;52.72;94841.41;5040854;28;20239;-82
2021/05/27 03:01:48;;;;;;;1.55;1.33;;;13.40;68.20;;;13.03;52.56;94846.09;4954298;28;20285;-83
2021/05/27 03:04:16;;;;;;;1.80;1.13;;;13.40;68.10;;;13.02;52.99;94847.13;4921569;28;20311;-82
2021/05/27 03:06:43;;;;;;;1.25;1.15;;;13.40;68.20;;;13.03;52.97;94846.91;4730580;29;20222;-82
2021/05/27 03:09:21;;;;;;;1.10;1.10;;;13.40;68.20;;;13.00;52.52;94843.88;5133172;27;20858;-82
2021/05/27 03:11:50;;;;;;;1.10;1.10;;;13.30;68.10;;;13.03;52.73;94846.09;5108951;28;20309;-82
2021/05/27 03:14:18;;;;;;;1.20;1.10;;;13.40;68.20;;;13.02;53.05;94850.53;5083952;28;20675;-83
2021/05/27 03:16:53;;;;;;;1.30;1.20;;;13.30;68.20;;;13.01;52.83;94853.41;5023962;28;20204;-83
2021/05/27 03:19:20;;;;;;;1.30;1.20;;;13.40;68.30;;;13.02;53.35;94853.19;4973457;28;20752;-82
2021/05/27 03:21:47;;;;;;;1.25;1.15;;;13.30;68.40;;;13.00;53.70;94863.13;4876482;29;20764;-83
2021/05/27 03:24:16;;;;;;;1.58;1.30;;;13.40;68.70;;;12.98;54.04;94860.69;4766710;29;20616;-82
2021/05/27 03:26:43;;;;;;;1.85;1.30;;;13.30;68.60;;;12.97;53.58;94859.09;4713738;30;20752;-83
2021/05/27 03:29:17;;;;;;;1.20;1.10;;;13.40;68.70;;;12.97;53.63;94856.47;5134342;27;20396;-82
2021/05/27 03:31:45;;;;;;;1.42;1.00;;;13.30;68.60;;;12.95;53.38;94855.03;5087702;28;20204;-82
2021/05/27 03:34:12;;;;;;;2.20;1.20;;;13.30;68.70;;;12.97;53.35;94858.25;5083231;28;20680;-81
2021/05/27 03:36:39;;;;;;;1.30;1.20;;;13.30;68.70;;;13.00;53.52;94862.31;5056053;28;20211;-82
2021/05/27 03:39:08;;;;;;;1.00;1.00;;;13.30;68.70;;;13.02;53.07;94857.66;4989517;28;20377;-82
2021/05/27 03:41:34;;;;;;;2.05;1.30;;;13.30;68.80;;;13.01;53.21;94856.84;4955325;28;20217;-83
2021/05/27 03:44:06;;;;;;;1.10;1.10;;;13.30;68.80;;;13.06;53.10;94853.56;4907932;29;20438;-83
2021/05/27 03:46:35;;;;;;;1.40;1.30;;;13.30;68.70;;;13.04;53.01;94850.34;4704606;29;20228;-83
2021/05/27 03:49:13;;;;;;;1.20;1.10;;;13.40;68.80;;;13.05;53.43;94846.69;5134760;27;20395;-83
2021/05/27 03:51:40;;;;;;;1.77;1.20;;;13.30;68.80;;;13.05;53.30;94865.94;5087907;28;20650;-83
2021/05/27 03:54:08;;;;;;;1.00;1.00;;;13.30;68.70;;;13.06;53.27;94864.94;5081242;28;20229;-81
2021/05/27 03:56:36;;;;;;;1.52;1.17;;;13.30;68.60;;;13.05;53.27;94867.75;5059205;28;20555;-82
2021/05/27 04:01:55;;;;;;;1.20;1.20;;;13.30;68.60;;;13.02;53.70;94868.19;4971938;28;20266;-83
2021/05/27 04:09:40;;;;;;;1.35;1.20;;;13.30;68.60;;;13.00;53.84;94878.94;5130987;27;20614;-82
2021/05/27 04:17:42;;;;;;;1.85;1.40;;;13.30;68.90;;;12.97;53.61;94868.78;5030625;28;20228;-83
2021/05/27 04:20:10;;;;;;;1.20;1.10;;;13.30;68.90;;;13.01;53.79;94867.38;4951975;28;20243;-83
2021/05/27 04:22:42;;;;;;;1.40;1.23;;;13.30;68.90;;;13.01;53.79;94875.28;4867067;29;20326;-83
2021/05/27 04:25:10;;;;;;;1.40;1.30;;;13.30;69.00;;;13.02;53.56;94884.78;4834161;29;20210;-82
2021/05/27 04:27:53;;;;;;;1.23;1.23;;;13.30;68.90;;;13.02;53.60;94879.50;5146260;27;20937;-82
2021/05/27 04:30:23;;;;;;;1.20;1.10;;;13.30;69.20;;;13.03;53.92;94877.69;5053434;28;20261;-82
2021/05/27 04:33:05;;;;;;;1.70;1.13;;;13.30;69.10;;;13.02;54.21;94887.41;5108485;28;20266;-83
2021/05/27 04:35:38;;;;;;;1.50;1.30;;;13.30;69.00;;;13.01;54.29;94880.56;5069009;28;20684;-83
2021/05/27 04:38:10;;;;;;;1.70;1.35;;;13.40;69.30;;;13.02;54.75;94889.25;5042481;28;20224;-82
2021/05/27 04:40:45;;;;;;;1.10;1.10;;;13.30;69.40;;;12.99;54.75;94890.47;4984525;28;20206;-83
2021/05/27 04:43:15;;;;;;;1.58;1.20;;;13.40;69.40;;;12.98;54.98;94891.47;4830343;29;20240;-83
2021/05/27 04:45:54;;;;;;;1.30;1.20;;;13.30;69.40;;;13.27;54.67;94892.78;5149707;27;20495;-83
2021/05/27 04:48:21;;;;;;;1.80;1.20;;;13.30;70.60;;;13.16;55.51;94896.09;5112195;27;20227;-83
2021/05/27 04:50:50;;;;;;;1.10;1.10;;;13.20;70.30;;;13.11;54.85;94895.91;5094456;28;20248;-82
2021/05/27 04:53:17;;;;;;;1.35;1.25;;;13.30;70.10;;;13.08;54.69;94883.94;5091259;28;20275;-81
2021/05/27 04:55:45;;;;;;;1.45;1.35;;;13.30;69.90;;;13.10;54.74;94899.56;5014525;28;20688;-82
2021/05/27 04:58:12;;;;;;;1.00;1.00;;;13.40;69.80;;;13.11;55.19;94903.81;4957661;28;20287;-82
2021/05/27 05:00:40;;;;;;;1.65;1.55;;;13.40;69.90;;;13.09;55.17;94895.31;4930404;28;20215;-83
2021/05/27 05:03:06;;;;;;;1.75;1.52;;;13.40;69.80;;;13.15;54.56;94896.31;4841438;29;20243;-81
2021/05/27 05:05:45;;;;;;;1.50;1.40;;;13.40;69.80;;;13.13;55.07;94888.59;5151045;27;20704;-82
2021/05/27 05:08:12;;;;;;;1.63;1.33;;;13.50;69.90;;;13.16;54.90;94892.63;5105224;28;20235;-83
2021/05/27 05:10:40;;;;;;;1.40;1.30;;;13.50;70.00;;;13.16;55.74;94900.53;5056888;28;20216;-82
2021/05/27 05:13:07;;;;;;;2.65;1.40;;;13.50;70.10;;;13.20;54.97;94896.47;5073504;28;20223;-82
2021/05/27 05:15:40;;;;;;;1.92;1.30;;;13.60;70.10;;;13.19;55.33;94895.66;5031449;28;20227;-82
2021/05/27 05:18:09;;;;;;;1.88;1.38;;;13.40;70.10;;;13.22;55.17;94905.78;4937223;28;20234;-83
2021/05/27 05:20:41;;;;;;;1.30;1.20;;;13.50;70.00;;;13.24;54.72;94900.31;4843011;29;20254;-83
2021/05/27 05:23:10;;;;;;;1.40;1.30;;;13.50;70.00;;;13.30;54.98;94902.09;4701139;29;23573;-82
2021/05/27 05:25:43;;;;;;;1.40;1.30;;;13.50;70.00;;;13.35;55.01;94902.28;5150782;27;20386;-82
2021/05/27 05:28:12;;;;;;;1.55;1.13;;;13.60;70.10;;;13.36;54.79;94898.63;5082643;28;20222;-82
2021/05/27 05:30:40;;;;;;;1.48;1.30;;;13.60;70.10;;;13.43;54.96;94904.72;5081095;28;20198;-82
2021/05/27 05:33:08;;;;;;;1.77;1.30;;;13.60;70.10;;;13.38;55.06;94896.63;5052292;28;20303;-82
2021/05/27 05:35:35;;;;;;;1.10;1.10;;;13.70;70.10;;;13.42;55.03;94891.75;5075259;28;20269;-82
2021/05/27 05:38:02;;;;;;;1.52;1.42;;;13.70;70.10;;;13.51;54.88;94892.31;5066412;28;20215;-82
2021/05/27 05:40:30;;;;;;;2.17;1.33;;;13.70;70.00;;;13.53;54.86;94899.00;4988937;28;20207;-83
2021/05/27 05:42:57;;;;;;;1.90;1.45;;;13.80;70.90;;;13.56;54.68;94903.03;4842495;29;20254;-83
2021/05/27 05:45:35;;;;;;;1.40;1.30;;;13.80;70.00;;;13.60;54.76;94917.41;5150928;27;20375;-83
2021/05/27 05:48:03;;;;;;;1.42;1.33;;;13.80;70.00;;;13.60;54.66;94925.31;5089703;28;20228;-83
2021/05/27 05:50:46;;;;;;;2.15;1.95;;;13.80;70.00;;;13.70;54.48;94935.41;5082662;28;20228;-83
2021/05/27 05:53:21;;;;;;;1.70;1.50;;;13.90;70.00;;;13.70;54.44;94930.94;4995126;28;20231;-82
2021/05/27 05:55:50;;;;;;;1.42;1.33;;;13.90;70.10;;;13.71;54.80;94937.81;4979243;28;20659;-83
2021/05/27 05:58:18;;;;;;;1.45;1.35;;;13.90;70.00;;;13.74;54.72;94936.59;4949532;28;20225;-83
2021/05/27 06:00:45;;;;;;;1.38;1.27;;;14.00;70.00;;;13.77;54.66;94933.56;4879632;29;20237;-81
2021/05/27 06:06:02;;;;;;;1.55;1.38;;;14.00;70.00;;;13.84;54.42;94942.25;5150665;27;20619;-83
2021/05/27 06:08:44;;;;;;;1.38;1.20;;;14.00;69.80;;;13.86;54.32;94948.09;5072534;28;20312;-82
2021/05/27 06:11:11;;;;;;;1.35;1.20;;;14.10;69.80;;;13.96;54.23;94950.25;5110317;28;20239;-82
2021/05/27 06:13:38;;;;;;;1.30;1.20;;;14.10;69.80;;;14.03;54.07;94953.66;5087627;28;20218;-82
2021/05/27 06:16:04;;;;;;;1.98;1.38;;;14.20;69.90;;;14.11;53.76;94963.19;5017574;28;20269;-83
2021/05/27 06:18:31;;;;;;;1.42;1.30;;;14.20;69.70;;;14.13;53.67;94947.13;4828130;29;20328;-82
2021/05/27 06:21:24;;;;;;;1.60;1.50;;;14.20;69.60;;;14.21;53.49;94952.16;4739196;29;20750;-82
2021/05/27 06:25:00;;;;;;;1.60;1.50;;;14.30;69.40;;;14.17;53.00;94953.59;5150592;27;20634;-82
2021/05/27 06:27:27;;;;;;;1.35;1.25;;;14.40;69.20;;;14.14;53.49;94949.53;5089633;28;20714;-83
2021/05/27 06:29:53;;;;;;;1.60;1.50;;;14.40;69.10;;;14.17;53.22;94961.50;5078619;28;20207;-82
2021/05/27 06:32:20;;;;;;;1.52;1.42;;;14.40;69.00;;;14.25;53.11;94964.69;5018710;28;20215;-82
2021/05/27 06:34:48;;;;;;;1.48;1.38;;;14.40;70.10;;;14.33;53.26;94961.00;5034102;28;20216;-81
2021/05/27 06:37:19;;;;;;;1.30;1.20;;;14.50;70.10;;;14.37;52.92;94980.66;5007321;28;20198;-83
2021/05/27 06:39:46;;;;;;;1.30;1.20;;;14.50;69.10;;;14.45;52.55;94965.56;4912830;28;20213;-83
2021/05/27 06:42:13;;;;;;;1.30;1.20;;;14.60;68.90;;;14.55;52.64;94960.66;4776681;29;20229;-80
2021/05/27 06:44:50;;;;;;;1.38;1.27;;;14.60;69.10;;;14.67;52.84;94964.22;5149563;27;20387;-83
2021/05/27 06:47:18;;;;;;;1.95;1.40;;;14.70;69.10;;;14.77;52.36;94958.44;5102485;28;20255;-82
2021/05/27 06:49:44;;;;;;;1.83;1.25;;;14.80;68.90;;;14.83;52.03;94946.19;5073497;28;20227;-83
2021/05/27 06:52:11;;;;;;;1.58;1.45;;;14.80;68.60;;;14.84;51.17;94967.13;5003984;28;20264;-83
2021/05/27 06:54:37;;;;;;;1.95;1.60;;;14.90;68.00;;;14.78;51.19;94952.16;4972825;28;20720;-82
2021/05/27 06:57:04;;;;;;;1.40;1.30;;;14.90;67.90;;;14.82;51.10;94960.44;4881543;29;20217;-83
2021/05/27 06:59:31;;;;;;;1.25;1.15;;;14.90;67.90;;;14.87;51.23;94960.59;4855851;29;20262;-83
2021/05/27 07:01:57;;;;;;;1.42;1.27;;;14.90;67.90;;;14.93;51.13;94956.25;4700519;29;20227;-82
2021/05/27 07:04:35;;;;;;;1.50;1.40;;;15.00;67.90;;;14.95;51.04;94956.84;5126623;27;20323;-82
2021/05/27 07:07:02;;;;;;;1.58;1.48;;;15.00;67.90;;;14.97;50.73;94958.25;5068677;28;20206;-83
2021/05/27 07:09:28;;;;;;;1.90;1.40;;;15.10;67.50;;;14.98;50.74;94969.66;5043145;28;20711;-81
2021/05/27 07:11:55;;;;;;;1.15;1.05;;;15.10;67.40;;;14.99;51.01;94964.13;5053506;28;20215;-82
2021/05/27 07:14:22;;;;;;;1.17;1.10;;;15.10;67.50;;;15.03;50.53;94973.22;4982792;28;20329;-82
2021/05/27 07:16:50;;;;;;;1.38;1.10;;;15.10;67.30;;;15.01;50.16;94963.91;4903596;29;20221;-83
2021/05/27 07:19:17;;;;;;;1.15;1.10;;;15.10;67.10;;;14.98;49.76;94964.38;4873074;29;20238;-82
2021/05/27 07:21:44;;;;;;;1.40;1.30;;;15.20;66.70;;;14.98;50.24;94970.44;4741522;29;23610;-82
2021/05/27 07:24:18;;;;;;;1.60;1.40;;;15.20;66.80;;;14.97;49.53;94981.22;5133564;27;20722;-82
2021/05/27 07:26:45;;;;;;;1.15;1.10;;;15.20;66.40;;;14.91;49.65;94982.09;5089198;28;20260;-83
2021/05/27 07:29:12;;;;;;;1.27;1.17;;;15.20;66.40;;;14.91;49.61;94985.53;5069040;28;20245;-82
2021/05/27 07:31:39;;;;;;;1.70;1.60;;;15.20;66.50;;;14.95;49.40;94984.09;5051502;28;20696;-82
2021/05/27 07:34:06;;;;;;;1.30;1.20;;;15.10;66.60;;;15.01;49.54;94988.50;4994043;28;20256;-82
2021/05/27 07:36:33;;;;;;;1.48;1.30;;;15.10;66.40;;;15.02;49.67;94982.16;4955669;28;20218;-82
2021/05/27 07:39:00;;;;;;;1.58;1.30;;;15.20;66.40;;;15.04;49.24;94971.41;4880137;29;20226;-83
2021/05/27 07:41:27;;;;;;;1.45;1.20;;;15.20;66.40;;;15.06;49.31;94990.47;4717471;29;20242;-82
2021/05/27 07:45:28;;;;;;;1.33;1.23;;;15.20;66.30;;;15.03;49.40;94978.50;5150871;27;20631;-83
2021/05/27 07:47:56;;;;;;;1.20;1.10;;;15.30;67.20;;;15.10;49.67;94978.47;5125101;27;20229;-82
2021/05/27 07:50:23;;;;;;;1.60;1.10;;;15.20;66.50;;;15.34;49.83;94987.38;5076297;28;20266;-83
2021/05/27 07:52:52;;;;;;;1.08;1.08;;;15.30;67.60;;;15.56;49.88;94978.19;5101420;27;20226;-83
2021/05/27 07:55:19;;;;;;;1.30;1.20;;;15.50;67.30;;;15.77;49.51;94984.84;5019219;28;20317;-82
2021/05/27 07:57:45;;;;;;;2.08;1.00;;;15.50;67.10;;;15.98;49.43;94983.59;4967053;28;20253;-82
2021/05/27 08:00:13;;;;;;;1.10;1.10;;;15.70;67.10;;;16.16;48.22;94980.91;4895182;28;20223;-83
2021/05/27 08:02:42;;;;;;;1.25;1.17;;;15.80;66.70;;;16.25;47.79;94977.94;4688964;29;20701;-83
2021/05/27 08:05:16;;;;;;;1.30;1.20;;;15.90;66.10;;;16.32;47.70;94981.31;5150901;27;20383;-82
2021/05/27 08:07:45;;;;;;;1.40;1.30;;;16.00;65.80;;;16.35;46.99;94980.03;5098662;28;20695;-83
2021/05/27 08:10:12;;;;;;;1.40;1.30;;;16.20;65.90;;;16.35;47.01;94988.78;5092199;28;20210;-83
2021/05/27 08:12:40;;;;;;;0.95;0.95;;;16.30;65.50;;;16.34;46.56;94984.50;5069084;28;20189;-82
2021/05/27 08:15:08;;;;;;;1.30;1.23;;;16.30;64.90;;;16.42;47.22;94994.00;5088971;28;20202;-82
2021/05/27 08:17:36;;;;;;;1.25;1.20;;;16.40;65.20;;;16.51;47.08;94994.47;4987463;28;20589;-82
2021/05/27 08:20:06;;;;;;;2.53;1.23;;;16.40;65.20;;;16.57;46.08;94997.00;4882241;28;20262;-81
2021/05/27 08:25:13;;;;;;;1.25;1.15;;;16.60;64.60;;;16.70;46.21;94996.00;5135603;27;20568;-81
2021/05/27 08:27:40;;;;;;;1.13;1.10;;;16.60;64.60;;;16.79;46.30;94997.25;5080635;28;20244;-82
2021/05/27 08:30:08;;;;;;;1.30;1.20;;;16.70;64.70;;;16.85;45.96;95003.50;5040316;28;20644;-81
2021/05/27 08:32:35;;;;;;;1.42;1.20;;;16.70;64.50;;;16.79;44.90;95002.56;5053486;28;20648;-81
2021/05/27 08:35:04;;;;;;;2.90;1.40;;;16.80;63.80;;;16.75;44.93;95000.63;4986349;28;20216;-82
2021/05/27 08:37:31;;;;;;;1.58;1.48;;;16.80;63.60;;;16.70;45.51;95003.13;4873743;29;20738;-82
2021/05/27 08:39:58;;;;;;;1.35;1.25;;;16.80;63.70;;;16.62;45.45;95001.63;4737593;29;20229;-81
2021/05/27 08:42:26;;;;;;;1.17;1.10;;;16.80;63.60;;;16.54;45.65;95004.59;4592027;30;20235;-82
2021/05/27 08:46:41;;;;;;;1.02;1.02;;;16.70;63.70;;;16.51;46.18;95005.84;5145065;27;20984;-81
2021/05/27 08:49:08;;;;;;;1.40;1.30;;;16.70;63.80;;;16.51;45.34;95007.72;5088204;28;20260;-82
2021/05/27 08:51:36;;;;;;;1.55;1.17;;;16.70;63.60;;;16.51;45.55;95016.44;5079863;28;20213;-83
2021/05/27 08:54:04;;;;;;;1.30;1.20;;;16.70;63.70;;;16.47;45.38;95023.22;5086190;28;20306;-82
2021/05/27 08:56:32;;;;;;;1.52;1.20;;;16.80;63.50;;;16.42;45.69;95023.13;5028957;28;20281;-82
2021/05/27 08:58:59;;;;;;;2.70;1.10;;;16.60;63.40;;;16.34;45.75;95018.94;4998406;28;20241;-83
2021/05/27 09:01:26;;;;;;;2.17;1.45;;;16.60;63.50;;;16.28;45.88;95020.66;4916289;28;20216;-82
2021/05/27 09:03:54;;;;;;;1.92;1.33;;;16.60;64.60;;;16.30;46.19;95033.66;4853537;29;20245;-82
2021/05/27 09:07:08;;;;;;;1.70;1.33;;;16.60;63.80;;;16.18;45.72;95020.38;5145725;27;20639;-81
2021/05/27 09:09:55;;;;;;;1.00;1.00;;;16.50;63.70;;;16.17;46.23;95027.50;5073566;28;20716;-81
2021/05/27 09:12:30;;;;;;;1.08;1.08;;;16.40;63.80;;;16.23;46.76;95017.84;5026109;28;20212;-82
2021/05/27 09:14:59;;;;;;;1.15;1.10;;;16.40;64.30;;;16.36;46.27;95021.38;5020419;28;20272;-83
2021/05/27 09:17:26;;;;;;;2.13;1.20;;;16.40;64.20;;;16.38;46.23;95029.88;5035605;28;20220;-83
2021/05/27 09:20:27;;;;;;;1.40;1.30;;;16.50;64.30;;;16.36;46.62;95031.97;4984937;28;20611;-83
2021/05/27 09:23:16;;;;;;;1.80;1.10;;;16.50;64.40;;;16.31;46.66;95045.84;4819162;29;20384;-82
2021/05/27 09:27:47;;;;;;;1.30;1.20;;;16.50;64.40;;;16.17;46.76;95037.28;5146417;27;20541;-83
2021/05/27 09:30:16;;;;;;;1.48;1.38;;;16.40;64.30;;;16.09;47.50;95043.69;5092418;28;20209;-82
2021/05/27 09:33:03;;;;;;;1.30;1.20;;;16.30;64.60;;;16.03;47.57;95034.00;5037410;28;20235;-83
2021/05/27 09:35:30;;;;;;;2.28;1.50;;;16.30;65.00;;;16.01;47.92;95038.69;5005145;28;20689;-82
2021/05/27 09:37:56;;;;;;;2.60;1.30;;;16.30;65.00;;;16.06;48.09;95038.81;5006700;28;20243;-82
2021/05/27 09:40:36;;;;;;;1.15;1.10;;;16.20;65.20;;;16.17;48.05;95038.09;4950171;28;20305;-84
2021/05/27 09:43:06;;;;;;;2.90;1.52;;;16.20;65.10;;;16.20;48.29;95036.00;4881431;29;20239;-82
2021/05/27 09:48:24;;;;;;;1.45;1.20;;;16.30;65.40;;;16.30;48.41;95044.25;5142689;27;20573;-82
2021/05/27 09:50:55;;;;;;;1.42;1.17;;;16.40;65.60;;;16.36;48.68;95043.34;5071230;28;20594;-83
2021/05/27 09:53:25;;;;;;;1.67;1.20;;;16.40;65.80;;;16.51;48.21;95052.72;5095277;28;20217;-83
2021/05/27 09:55:57;;;;;;;1.20;1.20;;;16.50;65.70;;;16.62;48.16;95049.28;5071524;28;20220;-83
2021/05/27 09:58:25;;;;;;;2.22;1.20;;;16.60;65.60;;;16.71;47.97;95047.13;5000799;28;20610;-83
2021/05/27 10:00:54;;;;;;;2.90;1.30;;;16.60;65.80;;;16.78;48.25;95038.06;4983170;28;20203;-83
2021/05/27 10:03:30;;;;;;;1.40;1.30;;;16.70;65.80;;;16.93;48.45;95045.59;4923417;28;20248;-82
2021/05/27 10:06:10;;;;;;;1.40;1.30;;;16.70;65.70;;;17.06;48.02;95046.41;5151009;27;20600;-82
2021/05/27 10:08:49;;;;;;;1.73;1.25;;;16.90;66.00;;;17.04;47.95;95035.22;5110556;27;20357;-82
2021/05/27 10:11:20;;;;;;;1.40;1.30;;;16.90;66.20;;;17.01;47.93;95044.44;5108734;28;20202;-82
2021/05/27 10:13:47;;;;;;;1.45;1.35;;;17.00;66.60;;;16.96;47.79;95050.41;5076058;28;20583;-82
2021/05/27 10:16:17;;;;;;;1.40;1.30;;;17.00;65.50;;;16.94;47.93;95052.50;5063589;28;20211;-83
2021/05/27 10:18:45;;;;;;;1.30;1.20;;;17.00;65.60;;;16.93;48.15;95045.59;5049302;28;20222;-83
2021/05/27 10:21:12;;;;;;;1.25;1.25;;;17.10;66.40;;;16.94;47.93;95041.91;5012786;28;20203;-82
2021/05/27 10:23:39;;;;;;;1.67;1.50;;;17.00;65.30;;;16.88;47.86;95039.31;4839695;29;20331;-83
2021/05/27 10:27:36;;;;;;;1.48;1.38;;;17.00;65.50;;;16.98;48.37;95057.34;5148643;27;20635;-83
2021/05/27 10:30:09;;;;;;;1.40;1.30;;;17.00;65.60;;;17.02;47.83;95042.63;5086901;28;20194;-83
2021/05/27 10:32:39;;;;;;;1.30;1.20;;;17.00;65.50;;;17.11;47.73;95044.69;5044590;28;20203;-83
2021/05/27 10:35:07;;;;;;;1.52;1.40;;;17.10;65.80;;;17.13;48.09;95041.81;4998137;28;20212;-83
2021/05/27 10:37:39;;;;;;;1.35;1.10;;;17.10;65.80;;;17.21;47.99;95043.28;5001300;28;20532;-84
2021/05/27 10:40:22;;;;;;;1.42;1.33;;;17.10;65.80;;;17.19;47.93;95035.59;4999917;28;20285;-82
2021/05/27 10:42:58;;;;;;;1.50;1.40;;;17.20;65.70;;;17.24;47.92;95045.50;4924500;28;20221;-83
2021/05/27 10:45:27;;;;;;;1.83;1.35;;;17.20;65.70;;;17.28;47.77;95041.34;4879454;28;20303;-86
2021/05/27 10:48:16;;;;;;;2.08;1.33;;;17.30;65.50;;;17.23;47.63;95036.72;5144561;27;20391;-84
2021/05/27 10:53:37;;;;;;;2.58;1.55;;;17.30;65.10;;;17.11;46.84;95034.09;5085659;28;20308;-83
2021/05/27 10:56:15;;;;;;;2.95;1.48;;;17.30;64.90;;;16.92;47.02;95030.72;5041565;28;20211;-83
2021/05/27 10:58:48;;;;;;;1.63;1.50;;;17.20;64.40;;;16.79;47.17;95030.91;5039291;28;20349;-83
2021/05/27 11:01:28;;;;;;;2.08;1.70;;;17.10;64.70;;;16.68;47.96;95021.91;4983348;28;20200;-83
2021/05/27 11:03:59;;;;;;;1.20;1.20;;;17.00;64.80;;;16.65;48.25;95025.00;4918851;28;20272;-83
2021/05/27 11:08:21;;;;;;;1.50;1.40;;;16.90;65.10;;;16.65;48.52;95027.66;5142813;27;20614;-83
2021/05/27 11:10:49;;;;;;;2.45;1.50;;;16.90;65.30;;;16.65;48.13;95031.09;5065650;28;20664;-83
2021/05/27 11:13:17;;;;;;;1.83;1.40;;;16.90;65.40;;;16.71;48.12;95018.81;5017631;28;20284;-84
2021/05/27 11:16:03;;;;;;;1.60;1.50;;;16.80;65.60;;;16.81;48.23;95023.53;5027565;28;20211;-84